Tolacon, Arizona
Current Conditions -  °F | °C
As of 7:53 AM on Wednesday 22 Oct 2014 (Local Time) from KCEZ Reporting Station
Few Clouds Few Clouds  
Wind Chill: 35°   Ceiling: Unl
Heat Index: 39°   Visibility: 10mi
Dew Point: 36°   Wind: 6mph
Humidity: 89%   Direction: 70°ENE
Pressure: 30.17"   Gusts: NA
Location:  36.7518°N, 109.365°W
Report Text: KCEZ 221353Z AUTO 07005KT 10SM FEW075 04/02 A3017 RMK AO2 SLP186 T00390022
Loading
Personal Weather Stations






























Interactive Weather Map
Tropical Storm Tracking
New forecast layout! Learn more

10-Day Weather Forecast

Advertisements
Track Severe Weather on mobile